createdAt,value
2023-02-20T00:00:32.925Z,3.50
2023-02-20T00:03:01.809Z,3.70
2023-02-20T00:05:36.342Z,3.40
2023-02-20T00:08:06.649Z,3.80
2023-02-20T00:10:45.654Z,3.20
2023-02-20T00:13:14.775Z,2.10
2023-02-20T00:15:44.928Z,1.70
2023-02-20T00:18:15.105Z,4.30
2023-02-20T00:20:46.296Z,4.40
2023-02-20T00:23:22.109Z,2.00
2023-02-20T00:25:55.343Z,1.90
2023-02-20T00:28:26.501Z,2.20
2023-02-20T00:30:57.094Z,2.00
2023-02-20T00:33:26.545Z,1.80
2023-02-20T00:35:59.245Z,1.60
2023-02-20T00:38:37.099Z,2.00
2023-02-20T00:41:06.399Z,1.40
2023-02-20T00:43:37.538Z,1.70
2023-02-20T00:46:07.275Z,1.60
2023-02-20T00:48:36.370Z,1.60
2023-02-20T00:51:25.474Z,1.30
2023-02-20T00:53:55.390Z,0.90
2023-02-20T00:56:25.010Z,1.50
2023-02-20T00:58:54.561Z,1.50
2023-02-20T01:01:23.333Z,1.40
2023-02-20T01:03:53.083Z,1.60
2023-02-20T01:06:23.020Z,1.70
2023-02-20T01:08:52.409Z,1.60
2023-02-20T01:11:25.532Z,3.10
2023-02-20T01:13:55.109Z,3.70
2023-02-20T01:16:24.101Z,3.40
2023-02-20T01:18:54.522Z,2.60
2023-02-20T01:21:23.900Z,1.50
2023-02-20T01:23:53.454Z,2.00
2023-02-20T01:26:23.155Z,3.10
2023-02-20T01:28:55.104Z,1.60
2023-02-20T01:31:25.376Z,1.30
2023-02-20T01:33:54.806Z,1.50
2023-02-20T01:36:24.511Z,1.70
2023-02-20T01:38:54.692Z,1.50
2023-02-20T01:41:24.933Z,1.40
2023-02-20T01:43:54.266Z,1.60
2023-02-20T01:46:30.149Z,1.30
2023-02-20T01:49:12.007Z,1.30
2023-02-20T01:51:48.153Z,1.20
2023-02-20T01:54:19.450Z,1.60
2023-02-20T01:56:50.206Z,1.90
2023-02-20T01:59:20.700Z,1.50
2023-02-20T02:01:50.128Z,1.70
2023-02-20T02:04:21.726Z,2.00
2023-02-20T02:06:52.748Z,2.20
2023-02-20T02:09:50.846Z,2.60
2023-02-20T02:12:20.273Z,2.20
2023-02-20T02:14:49.623Z,2.70
2023-02-20T02:17:29.552Z,1.80
2023-02-20T02:20:17.082Z,2.80
2023-02-20T02:27:09.501Z,3.10
2023-02-20T02:37:23.637Z,1.60
2023-02-20T02:40:24.506Z,2.10
2023-02-20T02:43:21.314Z,1.40
2023-02-20T02:45:53.757Z,1.90
2023-02-20T03:07:31.475Z,1.60
2023-02-20T03:19:42.912Z,1.50
2023-02-20T03:22:51.128Z,1.90
2023-02-20T04:55:25.222Z,1.50
2023-02-20T05:06:56.110Z,0.80
2023-02-20T05:12:28.675Z,1.50
2023-02-20T05:15:26.480Z,1.40
2023-02-20T05:18:35.019Z,0.80
2023-02-20T05:21:23.962Z,1.80
2023-02-20T05:32:25.636Z,1.30
2023-02-20T05:34:54.364Z,1.20
2023-02-20T05:57:14.066Z,1.20
2023-02-20T06:00:32.022Z,1.60
2023-02-20T06:42:36.972Z,1.70
2023-02-20T06:45:22.084Z,1.50
2023-02-20T06:50:35.196Z,1.70
2023-02-20T06:53:05.698Z,1.40
2023-02-20T06:55:35.390Z,1.10
2023-02-20T06:58:06.053Z,1.20
2023-02-20T07:00:51.381Z,1.30
2023-02-20T07:03:22.190Z,1.10
2023-02-20T07:08:54.882Z,1.00
2023-02-20T07:11:25.324Z,1.20
2023-02-20T07:17:13.757Z,0.90
2023-02-20T07:19:57.330Z,0.80
2023-02-20T07:22:27.364Z,1.00
2023-02-20T07:27:59.719Z,1.10
2023-02-20T07:30:42.254Z,1.50
2023-02-20T07:33:12.647Z,2.00
2023-02-20T07:44:37.094Z,2.40
2023-02-20T07:47:10.860Z,1.40
2023-02-20T07:49:40.388Z,2.00
2023-02-20T07:52:10.106Z,2.20
2023-02-20T08:30:54.844Z,1.70
2023-02-20T08:33:28.231Z,1.90
2023-02-20T08:38:47.731Z,1.60
2023-02-20T08:41:15.912Z,2.90
2023-02-20T08:44:09.331Z,1.80
2023-02-20T09:12:14.994Z,1.90
2023-02-20T09:14:57.824Z,1.00
2023-02-20T09:17:29.759Z,1.80
2023-02-20T09:20:01.935Z,1.10
2023-02-20T09:28:35.003Z,1.00
2023-02-20T09:33:59.289Z,1.40
2023-02-20T09:59:36.899Z,1.30
2023-02-20T10:03:00.871Z,1.30
2023-02-20T10:08:43.998Z,2.40
2023-02-20T10:37:41.919Z,1.30
2023-02-20T10:40:33.991Z,1.70
2023-02-20T10:43:36.156Z,3.00
2023-02-20T10:46:49.542Z,5.30
2023-02-20T11:39:31.663Z,2.20
2023-02-20T11:42:37.080Z,2.50
2023-02-20T11:45:30.076Z,2.10
2023-02-20T12:26:31.734Z,2.00
2023-02-20T12:29:29.768Z,4.80
2023-02-20T12:39:34.544Z,2.40
2023-02-20T13:11:23.229Z,2.00
2023-02-20T13:14:11.470Z,1.90
2023-02-20T13:16:56.693Z,1.90
2023-02-20T13:20:15.641Z,1.90
2023-02-20T13:22:44.250Z,1.40
2023-02-20T14:24:21.919Z,2.80
2023-02-20T14:26:56.893Z,3.30
2023-02-20T14:29:32.097Z,3.00
2023-02-20T14:32:03.690Z,2.80
2023-02-20T14:34:44.750Z,2.30
2023-02-20T14:40:08.485Z,2.90
2023-02-20T14:42:44.800Z,2.80
2023-02-20T14:45:21.267Z,3.30
2023-02-20T14:47:54.489Z,2.60
2023-02-20T14:50:42.717Z,2.40
2023-02-20T14:53:19.478Z,3.30
2023-02-20T14:55:52.249Z,3.10
2023-02-20T14:58:24.092Z,4.90
2023-02-20T15:03:36.209Z,4.20
2023-02-20T15:06:10.758Z,6.00
2023-02-20T15:08:43.757Z,2.80
2023-02-20T15:11:14.331Z,3.50
2023-02-20T15:13:46.758Z,4.80
2023-02-20T15:16:30.903Z,3.00
2023-02-20T15:19:01.986Z,4.30
2023-02-20T15:21:58.391Z,3.80
2023-02-20T15:24:37.409Z,3.00
2023-02-20T15:27:16.344Z,4.00
2023-02-20T15:29:47.699Z,3.80
2023-02-20T15:32:23.847Z,3.70
2023-02-20T15:34:55.103Z,4.00
2023-02-20T15:37:38.600Z,4.60
2023-02-20T15:40:22.441Z,4.60
2023-02-20T15:42:57.713Z,5.00
2023-02-20T15:45:29.011Z,4.00
2023-02-20T15:47:59.139Z,5.50
2023-02-20T15:50:28.649Z,6.00
2023-02-20T15:52:59.366Z,5.50
2023-02-20T15:55:30.339Z,5.50
2023-02-20T15:58:01.616Z,5.30
2023-02-20T16:03:04.084Z,5.50
2023-02-20T16:05:34.759Z,5.40
2023-02-20T16:08:08.060Z,5.20
2023-02-20T16:10:39.420Z,5.50
2023-02-20T16:13:46.184Z,5.50
2023-02-20T16:16:24.756Z,5.70
2023-02-20T16:18:55.425Z,5.30
2023-02-20T16:21:24.818Z,5.50
2023-02-20T16:23:58.212Z,6.00
2023-02-20T16:26:32.850Z,5.00
2023-02-20T16:29:07.477Z,6.00
2023-02-20T16:32:01.064Z,6.50
2023-02-20T16:34:32.872Z,6.20
2023-02-20T16:37:02.800Z,6.20
2023-02-20T16:39:32.539Z,6.50
2023-02-20T16:42:46.864Z,5.70
2023-02-20T16:45:18.749Z,5.80
2023-02-20T16:47:52.987Z,5.80
2023-02-20T16:50:25.312Z,5.60
2023-02-20T16:52:55.444Z,5.40
2023-02-20T16:55:33.871Z,5.50
2023-02-20T16:58:04.777Z,5.90
2023-02-20T17:00:38.468Z,4.70
2023-02-20T17:03:13.648Z,4.50
2023-02-20T17:05:42.663Z,5.90
2023-02-20T17:08:11.802Z,4.70
2023-02-20T17:10:46.826Z,5.10
2023-02-20T17:13:18.971Z,5.30
2023-02-20T17:15:48.911Z,4.20
2023-02-20T17:18:19.887Z,4.70
2023-02-20T17:20:51.900Z,4.30
2023-02-20T17:23:21.792Z,4.30
2023-02-20T17:25:50.790Z,4.90
2023-02-20T17:28:21.048Z,5.00
2023-02-20T17:33:41.485Z,4.60
2023-02-20T17:36:12.080Z,5.40
2023-02-20T17:38:44.018Z,4.70
2023-02-20T17:41:13.719Z,4.80
2023-02-20T17:43:43.982Z,4.70
2023-02-20T17:46:13.838Z,5.10
2023-02-20T17:48:43.846Z,4.80
2023-02-20T17:51:20.182Z,4.90
2023-02-20T17:53:53.861Z,4.40
2023-02-20T17:56:24.560Z,4.50
2023-02-20T18:01:27.921Z,4.80
2023-02-20T18:03:57.307Z,4.80
2023-02-20T18:06:26.563Z,8.50
2023-02-20T18:08:57.233Z,9.60
2023-02-20T18:11:28.342Z,15.20
2023-02-20T18:14:07.892Z,8.80
2023-02-20T18:16:39.363Z,8.50
2023-02-20T18:19:14.768Z,7.60
2023-02-20T18:21:49.618Z,7.00
2023-02-20T18:24:25.378Z,5.90
2023-02-20T18:29:30.141Z,5.80
2023-02-20T18:32:00.670Z,6.20
2023-02-20T18:34:32.126Z,6.10
2023-02-20T18:37:02.506Z,5.60
2023-02-20T18:39:32.101Z,6.10
2023-02-20T18:44:33.022Z,6.20
2023-02-20T18:47:04.094Z,6.40
2023-02-20T18:52:12.881Z,5.30
2023-02-20T18:57:13.529Z,5.90
2023-02-20T18:59:44.039Z,5.50
2023-02-20T19:02:15.671Z,5.50
2023-02-20T19:04:46.350Z,5.60
2023-02-20T19:07:16.240Z,4.80
2023-02-20T19:09:46.888Z,5.40
2023-02-20T19:12:16.753Z,5.10
2023-02-20T19:14:46.732Z,4.70
2023-02-20T19:17:16.891Z,5.00
2023-02-20T19:19:48.439Z,4.40
2023-02-20T19:22:20.729Z,6.40
2023-02-20T19:24:51.361Z,6.60
2023-02-20T19:27:22.962Z,6.60
2023-02-20T19:29:54.881Z,5.40
2023-02-20T19:32:25.097Z,5.10
2023-02-20T19:34:55.676Z,4.80
2023-02-20T19:37:25.611Z,3.70
2023-02-20T19:39:58.243Z,4.80
2023-02-20T19:42:29.304Z,5.00
2023-02-20T19:44:59.237Z,5.30
2023-02-20T19:47:29.766Z,6.20
2023-02-20T19:49:59.756Z,6.20
2023-02-20T19:52:29.918Z,6.00
2023-02-20T19:55:02.851Z,5.40
2023-02-20T19:57:37.006Z,4.80
2023-02-20T20:00:07.806Z,4.70
2023-02-20T20:02:42.389Z,4.20
2023-02-20T20:05:13.226Z,4.00
2023-02-20T20:07:43.564Z,4.10
2023-02-20T20:10:20.363Z,3.60
2023-02-20T20:12:51.686Z,3.80
2023-02-20T20:15:24.030Z,3.90
2023-02-20T20:17:58.156Z,3.40
2023-02-20T20:20:28.757Z,3.40
2023-02-20T20:23:02.591Z,3.30
2023-02-20T20:25:32.372Z,3.70
2023-02-20T20:28:07.075Z,3.70
2023-02-20T20:30:42.053Z,3.20
2023-02-20T20:33:15.687Z,3.10
2023-02-20T20:35:47.144Z,3.10
2023-02-20T20:38:17.453Z,2.90
2023-02-20T20:40:48.523Z,3.00
2023-02-20T20:43:18.122Z,3.10
2023-02-20T20:45:47.275Z,3.00
2023-02-20T20:48:17.686Z,2.70
2023-02-20T20:50:51.311Z,3.00
2023-02-20T20:53:21.498Z,3.30
2023-02-20T20:55:51.164Z,4.00
2023-02-20T20:58:20.990Z,3.70
2023-02-20T21:00:54.746Z,4.20
2023-02-20T21:03:25.849Z,3.00
2023-02-20T21:05:56.041Z,4.00
2023-02-20T21:08:31.425Z,3.30
2023-02-20T21:11:04.467Z,3.10
2023-02-20T21:13:38.111Z,3.20
2023-02-20T21:16:12.088Z,3.20
2023-02-20T21:21:13.509Z,3.10
2023-02-20T21:23:46.168Z,2.40
2023-02-20T21:26:15.866Z,2.80
2023-02-20T21:28:45.720Z,2.60
2023-02-20T21:31:16.139Z,2.30
2023-02-20T21:33:46.119Z,2.40
2023-02-20T21:36:15.799Z,2.90
2023-02-20T21:38:45.456Z,2.30
2023-02-20T21:41:39.592Z,2.70
2023-02-20T21:44:28.446Z,2.50
2023-02-20T21:47:05.569Z,3.10
2023-02-20T21:49:37.762Z,2.80
2023-02-20T21:52:07.335Z,3.00
2023-02-20T21:54:37.032Z,2.60
2023-02-20T21:57:07.015Z,2.90
2023-02-20T22:02:08.674Z,3.40
2023-02-20T22:04:37.719Z,3.20
2023-02-20T22:07:26.776Z,3.70
2023-02-20T22:13:05.568Z,3.20
2023-02-20T22:15:53.659Z,3.40
2023-02-20T22:21:39.174Z,3.80
2023-02-20T22:24:37.854Z,3.50
2023-02-20T22:27:27.612Z,3.40
2023-02-20T22:30:15.656Z,3.30
2023-02-20T22:33:03.788Z,3.10
2023-02-20T22:35:52.336Z,3.20
2023-02-20T22:38:41.594Z,3.10
2023-02-20T22:41:30.371Z,4.20
2023-02-20T22:44:19.200Z,4.00
2023-02-20T22:47:06.893Z,3.40
2023-02-20T22:49:54.646Z,3.30
2023-02-20T22:52:43.244Z,3.20
2023-02-20T22:55:32.884Z,2.70
2023-02-20T22:58:21.748Z,3.40
2023-02-20T23:01:10.445Z,2.80
2023-02-20T23:04:02.235Z,3.10
2023-02-20T23:06:51.179Z,3.00
2023-02-20T23:09:40.049Z,2.90
2023-02-20T23:24:32.239Z,3.50
2023-02-20T23:28:48.455Z,3.00
